Data for 11/17/2007

Time Sea-Level Adjusted Pressure Absolute Pressure Temperature Relative Humidity Dew Point   
(mb) (inHg) (mb) (inHg) (C) (F) (%) (C) (F)
00:05 1015 29.97 844 24.92 7.5 45.5 58 -0.2 31.6
00:10 1015 29.97 844 24.92 7.5 45.6 58 -0.2 31.6
00:15 1015 29.97 844 24.92 7.5 45.5 58 -0.1 31.8
00:20 1015 29.97 844 24.92 7 44.5 61 -0 32
00:25 1015 29.97 844 24.92 6.6 43.9 60 -0.5 31.1
00:30 1015 29.97 844 24.92 6.9 44.3 61 -0.2 31.6
00:35 1015 29.97 844 24.92 6.5 43.8 62 -0.3 31.5
00:40 1015 29.97 844 24.92 6.4 43.5 62 -0.4 31.2
00:45 1015 29.97 844 24.92 6.4 43.5 60 -0.8 30.5
00:50 1015 29.97 844 24.92 6.6 43.9 58 -0.9 30.3
00:55 1015 29.97 844 24.92 6.7 44 61 -0.4 31.4
01:00 1015 29.97 844 24.92 6.3 43.3 61 -0.7 30.8
01:05 1015 29.97 844 24.92 6.3 43.3 60 -0.9 30.4
01:10 1015 29.97 844 24.92 6.4 43.5 62 -0.3 31.5
01:15 1015 29.97 844 24.92 5.8 42.4 63 -0.7 30.7
01:20 1015 29.97 844 24.92 5.7 42.3 65 -0.4 31.2
01:25 1015 29.97 844 24.92 5.7 42.3 64 -0.5 31.1
01:30 1015 29.97 844 24.92 5.7 42.3 64 -0.6 31
01:35 1015 29.97 844 24.92 6.1 42.9 62 -0.7 30.7
01:40 1015 29.97 844 24.92 6.5 43.7 61 -0.4 31.3
01:45 1015 29.97 844 24.92 6.3 43.3 62 -0.3 31.4
01:50 1015 29.97 844 24.92 6.3 43.3 62 -0.5 31.1
01:55 1015 29.97 844 24.92 6.6 43.8 60 -0.7 30.8
02:00 1015 29.97 844 24.92 7.1 44.7 57 -0.9 30.4
02:05 1015 29.97 844 24.92 7.5 45.4 59 -0 31.9
02:10 1015 29.97 844 24.92 6.8 44.2 63 0.3 32.6
02:15 1015 29.97 844 24.92 6 42.7 62 -0.8 30.6
02:20 1015 29.97 844 24.92 6.8 44.2 58 -0.9 30.4
02:25 1015 29.97 844 24.92 7.3 45.1 56 -0.9 30.4
02:30 1015 29.97 844 24.92 7.5 45.4 56 -0.7 30.7
02:35 1015 29.97 844 24.92 7.6 45.7 55 -0.8 30.5
02:40 1015 29.97 844 24.92 7.8 46.1 56 -0.3 31.4
02:45 1015 29.97 844 24.92 7.6 45.7 56 -0.6 30.9
02:50 1015 29.97 844 24.92 8 46.3 56 -0.3 31.4
02:55 1015 29.97 844 24.92 7.8 46.1 55 -0.7 30.7
03:00 1015 29.97 844 24.92 8.2 46.8 53 -0.9 30.4
03:05 1015 29.97 844 24.92 9 48.2 51 -0.6 31
03:10 1015 29.97 844 24.92 9 48.2 51 -0.5 31.2
03:15 1015 29.97 844 24.92 9 48.2 52 -0.3 31.5
03:20 1015 29.97 844 24.92 8.6 47.4 54 -0.3 31.5
03:25 1015 29.97 844 24.92 8.4 47.2 54 -0.2 31.6
03:30 1015 29.97 844 24.92 8.2 46.8 57 0.1 32.2
03:35 1015 29.97 844 24.92 7.5 45.5 63 0.9 33.6
03:40 1015 29.97 844 24.92 6.6 44 60 -0.5 31.1
03:45 1015 29.97 844 24.92 7.4 45.3 57 -0.6 30.9
03:50 1015 29.97 844 24.92 8 46.3 57 -0 31.9
03:55 1015 29.97 844 24.92 7.8 46 59 0.4 32.7
04:00 1015 29.97 844 24.92 7.1 44.7 62 0.4 32.7
04:05 1015 29.97 844 24.92 7.1 44.7 59 -0.3 31.4
04:10 1015 29.97 844 24.92 7.5 45.5 57 -0.5 31.1
04:15 1015 29.97 844 24.92 7.7 45.8 57 -0.2 31.7
04:20 1015 29.97 844 24.92 7.7 45.8 58 -0.1 31.8
04:25 1015 29.97 844 24.92 7.7 45.8 58 -0.1 31.9
04:30 1015 29.97 844 24.92 7.8 46 57 -0.2 31.7
04:35 1015 29.97 844 24.92 7.9 46.3 57 -0.1 31.8
04:40 1015 29.97 844 24.92 8 46.3 56 -0.1 31.8
04:45 1015 29.97 844 24.92 7.9 46.3 57 -0.1 31.8
04:50 1015 29.97 844 24.92 7.8 46 57 -0.3 31.5
04:55 1015 29.97 844 24.92 7.9 46.2 56 -0.3 31.5
05:00 1015 29.97 844 24.92 7.8 46.1 58 0.2 32.4
05:05 1015 29.97 844 24.92 7.7 45.8 58 -0.1 31.9
05:10 1015 29.97 845 24.95 7.6 45.7 61 0.5 33
05:15 1015 29.97 845 24.95 7 44.6 64 0.6 33.1
05:20 1015 29.97 845 24.95 6.6 43.9 64 0.3 32.5
05:25 1015 29.97 845 24.95 6.7 44.1 63 0.1 32.2
05:30 1015 29.97 845 24.95 6.8 44.2 65 0.7 33.2
05:35 1015 29.97 845 24.95 6.5 43.6 64 0.3 32.5
05:40 1015 29.97 845 24.95 6.6 43.8 64 0.3 32.6
05:45 1015 29.97 845 24.95 6.6 43.9 64 0.4 32.7
05:50 1015 29.97 845 24.95 6.6 43.8 64 0.2 32.3
05:55 1015 29.97 845 24.95 6.8 44.3 61 -0 31.9
06:00 1015 29.97 845 24.95 6.9 44.4 65 0.7 33.2
06:05 1015 29.97 845 24.95 6.5 43.7 66 0.5 32.9
06:10 1015 29.97 845 24.95 6.6 43.8 64 0.3 32.6
06:15 1015 29.97 845 24.95 6.5 43.8 66 0.6 33.1
06:20 1015 29.97 845 24.95 6.2 43.2 67 0.6 33
06:25 1015 29.97 845 24.95 6.1 43 67 0.5 32.9
06:30 1015 29.97 845 24.95 6 42.8 67 0.4 32.7
06:35 1015 29.97 845 24.95 6 42.7 67 0.4 32.7
06:40 1015 29.97 845 24.95 5.7 42.3 69 0.5 32.8
06:45 1015 29.97 845 24.95 5.6 42 68 0.1 32.2
06:50 1015 29.97 845 24.95 5.6 42.1 68 0.3 32.5
06:55 1015 29.97 844 24.92 5.5 41.8 68 0.1 32.2
07:00 1015 29.97 845 24.95 5.6 42 68 0.1 32.1
07:05 1015 29.97 845 24.95 6 42.7 65 -0.2 31.7
07:10 1015 29.97 845 24.95 6.1 43.1 66 0.3 32.5
07:15 1016 30 845 24.95 6.1 43 66 0.3 32.5
07:20 1016 30 845 24.95 5.6 42 69 0.3 32.6
07:25 1016 30 845 24.95 5 41 71 0.2 32.4
07:30 1016 30 845 24.95 4.6 40.3 72 0.1 32.1
07:35 1016 30 845 24.95 4.6 40.2 71 -0.3 31.5
07:40 1016 30 845 24.95 4.8 40.6 71 -0.1 31.8
07:45 1016 30 845 24.95 4.8 40.6 70 -0.1 31.7
07:50 1016 30 845 24.95 4.9 40.8 69 -0.3 31.5
07:55 1016 30 845 24.95 4.8 40.7 69 -0.4 31.3
08:00 1016 30 845 24.95 4.7 40.5 69 -0.4 31.4
08:05 1016 30 845 24.95 4.6 40.3 69 -0.6 31
08:10 1016 30 845 24.95 4.9 40.8 68 -0.6 30.9
08:15 1016 30 845 24.95 4.9 40.8 69 -0.4 31.3
08:20 1016 30 845 24.95 4.9 40.8 68 -0.4 31.2
08:25 1015 29.97 845 24.95 5 41 68 -0.4 31.3
08:30 1015 29.97 844 24.92 5.2 41.4 67 -0.3 31.5
08:35 1015 29.97 844 24.92 5.4 41.7 67 -0.2 31.6
08:40 1015 29.97 844 24.92 5.2 41.4 69 -0 32
08:45 1015 29.97 844 24.92 5 41 69 -0.2 31.7
08:50 1015 29.97 844 24.92 5.4 41.7 67 -0.3 31.5
08:55 1015 29.97 844 24.92 6 42.9 65 -0.1 31.9
09:00 1015 29.97 844 24.92 6.6 43.9 62 -0.1 31.9
09:05 1015 29.97 844 24.92 7.4 45.2 60 0.2 32.3
09:10 1015 29.97 844 24.92 7.6 45.6 60 0.4 32.7
09:15 1015 29.97 844 24.92 8 46.3 59 0.5 32.9
09:20 1015 29.97 844 24.92 8.5 47.2 57 0.4 32.6
09:25 1015 29.97 844 24.92 9.3 48.7 53 0.3 32.5
09:30 1015 29.97 844 24.92 9.9 49.9 50 0 32
09:35 1015 29.97 845 24.95 10.2 50.3 51 0.4 32.7
09:40 1015 29.97 845 24.95 10.2 50.3 50 0.2 32.3
09:45 1015 29.97 845 24.95 9.8 49.7 51 0.3 32.5
09:50 1015 29.97 845 24.95 9.7 49.5 52 0.3 32.5
09:55 1016 30 845 24.95 9.8 49.7 51 0.2 32.4
10:00 1016 30 845 24.95 9.9 49.7 51 0.3 32.5
10:05 1016 30 845 24.95 9.6 49.4 52 0.2 32.4
10:10 1016 30 845 24.95 9.6 49.4 51 0.1 32.1
10:15 1016 30 845 24.95 9.5 49.1 53 0.3 32.6
10:20 1016 30 845 24.95 9.5 49.1 51 -0.1 31.9
10:25 1016 30 845 24.95 9.6 49.2 51 0 32
10:30 1016 30 845 24.95 9.6 49.3 52 0.2 32.4
10:35 1016 30 845 24.95 9.6 49.4 52 0.2 32.4
10:40 1016 30 845 24.95 9.8 49.6 52 0.4 32.6
10:45 1015 29.97 845 24.95 9.8 49.7 53 0.9 33.6
10:50 1015 29.97 845 24.95 9.6 49.3 56 1.4 34.5
10:55 1015 29.97 845 24.95 9.3 48.8 58 1.5 34.8
11:00 1015 29.97 845 24.95 9.2 48.6 60 1.9 35.4
11:05 1016 30 845 24.95 9.1 48.4 57 1 33.8
11:10 1016 30 845 24.95 9.3 48.7 56 0.9 33.6
11:15 1016 30 845 24.95 9.2 48.6 59 1.6 34.9
11:20 1016 30 845 24.95 9.1 48.4 59 1.6 34.9
11:25 1016 30 845 24.95 8.9 48 58 1 33.8
11:30 1016 30 845 24.95 8.7 47.6 69 3.3 37.9
11:35 1016 30 845 24.95 8 46.4 70 2.9 37.3
11:40 1016 30 845 24.95 7.8 46 73 3.3 37.9
11:45 1016 30 845 24.95 7.5 45.5 74 3.1 37.6
11:50 1015 29.97 845 24.95 7.5 45.5 71 2.6 36.7
11:55 1015 29.97 845 24.95 7.6 45.7 72 2.9 37.2
12:00 1015 29.97 844 24.92 7.9 46.1 71 3 37.3
12:05 1015 29.97 844 24.92 8 46.3 72 3.3 38
12:10 1015 29.97 844 24.92 8 46.4 73 3.5 38.3
12:15 1015 29.97 844 24.92 8.1 46.5 74 3.7 38.6
12:20 1015 29.97 844 24.92 8 46.3 73 3.5 38.3
12:25 1015 29.97 844 24.92 7.9 46.3 73 3.4 38.2
12:30 1015 29.97 844 24.92 7.9 46.3 74 3.5 38.4
12:35 1015 29.97 844 24.92 7.8 46 76 3.9 39.1
12:40 1014 29.94 844 24.92 7.6 45.7 78 4.1 39.4
12:45 1014 29.94 843 24.89 7.3 45.2 81 4.3 39.7
12:50 1014 29.94 843 24.89 7.1 44.8 81 4.1 39.4
12:55 1014 29.94 843 24.89 7 44.6 84 4.5 40.1
13:00 1014 29.94 843 24.89 7.1 44.8 82 4.3 39.8
13:05 1014 29.94 843 24.89 7.1 44.7 81 4 39.2
13:10 1014 29.94 843 24.89 6.9 44.5 82 4.1 39.4
13:15 1014 29.94 843 24.89 6.9 44.4 82 4 39.2
13:20 1014 29.94 843 24.89 6.8 44.3 82 3.9 39.1
13:25 1013 29.91 843 24.89 6.8 44.2 82 3.9 39
13:30 1013 29.91 843 24.89 6.9 44.5 83 4.2 39.6
13:35 1013 29.91 843 24.89 7.1 44.8 83 4.4 39.9
13:40 1013 29.91 843 24.89 7.3 45.1 83 4.6 40.3
13:45 1013 29.91 843 24.89 7.5 45.4 83 4.7 40.5
13:50 1013 29.91 843 24.89 7.6 45.7 82 4.8 40.7
13:55 1013 29.91 843 24.89 7.7 45.9 82 4.9 40.8
14:00 1013 29.91 843 24.89 7.9 46.1 81 4.8 40.7
14:05 1013 29.91 843 24.89 8 46.3 81 4.9 40.9
14:10 1013 29.91 843 24.89 7.8 46.1 80 4.7 40.4
14:15 1013 29.91 843 24.89 7.7 45.8 81 4.6 40.3
14:20 1013 29.91 843 24.89 7.7 45.8 80 4.4 39.9
14:25 1013 29.91 843 24.89 7.7 45.9 78 4.2 39.5
14:30 1013 29.91 843 24.89 7.8 46 77 4 39.3
14:35 1013 29.91 843 24.89 7.9 46.1 76 3.9 39
14:40 1013 29.91 843 24.89 7.8 46.1 76 3.9 39
14:45 1013 29.91 843 24.89 7.8 46.1 75 3.6 38.5
14:50 1013 29.91 843 24.89 8 46.4 75 3.9 39
14:55 1013 29.91 842 24.86 8.2 46.7 75 4 39.2
15:00 1013 29.91 843 24.89 8.3 46.9 73 3.8 38.9
15:05 1013 29.91 843 24.89 8.2 46.7 75 4.1 39.4
15:10 1013 29.91 843 24.89 8.3 47 74 4 39.2
15:15 1013 29.91 843 24.89 8.4 47.1 72 3.7 38.6
15:20 1013 29.91 843 24.89 8.2 46.8 72 3.5 38.4
15:25 1013 29.91 843 24.89 8.1 46.6 73 3.7 38.6
15:30 1013 29.91 843 24.89 8.2 46.7 72 3.4 38.1
15:35 1014 29.94 843 24.89 8.3 47 72 3.5 38.3
15:40 1013 29.91 843 24.89 8.3 46.9 72 3.5 38.3
15:45 1013 29.91 843 24.89 8.3 46.9 73 3.6 38.5
15:50 1013 29.91 843 24.89 8.4 47.1 71 3.4 38.1
15:55 1013 29.91 842 24.86 8.3 46.9 73 3.8 38.8
16:00 1013 29.91 843 24.89 8.2 46.8 72 3.5 38.2
16:05 1014 29.94 843 24.89 8.1 46.6 72 3.5 38.2
16:10 1014 29.94 843 24.89 8.1 46.5 73 3.5 38.2
16:15 1014 29.94 843 24.89 8.1 46.7 73 3.6 38.4
16:20 1013 29.91 843 24.89 8.2 46.8 75 4 39.3
16:25 1013 29.91 843 24.89 7.9 46.3 77 4.1 39.3
16:30 1013 29.91 843 24.89 7.8 46 77 4 39.1
16:35 1013 29.91 843 24.89 7.6 45.7 78 4.1 39.4
16:40 1013 29.91 843 24.89 7.5 45.4 78 4 39.1
16:45 1013 29.91 843 24.89 7.3 45.2 79 3.9 39
16:50 1013 29.91 843 24.89 7.2 45 79 3.9 38.9
16:55 1013 29.91 843 24.89 7.2 44.9 79 3.7 38.7
17:00 1013 29.91 843 24.89 7.1 44.8 80 4 39.2
17:05 1013 29.91 843 24.89 7 44.6 80 3.9 39
17:10 1013 29.91 843 24.89 7 44.6 81 3.9 39.1
17:15 1013 29.91 843 24.89 6.9 44.4 80 3.8 38.8
17:20 1014 29.94 843 24.89 6.8 44.2 79 3.5 38.3
17:25 1014 29.94 843 24.89 6.8 44.2 79 3.5 38.2
17:30 1014 29.94 843 24.89 6.8 44.3 78 3.2 37.8
17:35 1014 29.94 843 24.89 6.8 44.2 76 2.9 37.3
17:40 1014 29.94 843 24.89 6.8 44.2 77 3.1 37.6
17:45 1014 29.94 843 24.89 6.8 44.3 79 3.4 38.1
17:50 1013 29.91 843 24.89 6.7 44 81 3.7 38.6
17:55 1013 29.91 842 24.86 6.4 43.5 78 2.8 37.1
18:00 1013 29.91 842 24.86 6.3 43.4 78 2.9 37.1
18:05 1013 29.91 842 24.86 6.2 43.1 83 3.5 38.4
18:10 1013 29.91 842 24.86 6.1 43 82 3.2 37.8
18:15 1013 29.91 842 24.86 6.2 43.2 80 3 37.4
18:20 1013 29.91 842 24.86 6.4 43.5 77 2.6 36.6
18:25 1013 29.91 842 24.86 7 44.5 72 2.2 36
18:30 1013 29.91 842 24.86 6.9 44.5 73 2.4 36.4
18:35 1013 29.91 842 24.86 6.7 44.1 79 3.3 37.9
18:40 1013 29.91 842 24.86 5.8 42.5 82 3 37.3
18:45 1013 29.91 842 24.86 5.2 41.4 83 2.5 36.6
18:50 1013 29.91 842 24.86 5 41 82 2.2 36
18:55 1013 29.91 842 24.86 5 41.1 81 2 35.7
19:00 1013 29.91 842 24.86 5.3 41.6 79 2 35.7
19:05 1013 29.91 842 24.86 5.8 42.5 76 2 35.5
19:10 1013 29.91 842 24.86 6.2 43.2 70 1.2 34.2
19:15 1013 29.91 842 24.86 6.9 44.5 67 1.2 34.1
19:20 1013 29.91 842 24.86 7.8 46 61 0.8 33.5
19:25 1013 29.91 842 24.86 7.9 46.3 64 1.5 34.8
19:30 1013 29.91 842 24.86 7.6 45.6 64 1.2 34.1
19:35 1013 29.91 842 24.86 7.2 45 65 1.2 34.1
19:40 1013 29.91 842 24.86 6.9 44.3 65 0.8 33.5
19:45 1013 29.91 842 24.86 6.8 44.3 64 0.6 33.1
19:50 1012 29.88 842 24.86 7 44.6 63 0.5 32.9
19:55 1012 29.88 842 24.86 7.3 45.1 62 0.4 32.8
20:00 1012 29.88 841 24.83 7.4 45.3 61 0.4 32.8
20:05 1012 29.88 841 24.83 7.4 45.3 62 0.5 32.9
20:10 1012 29.88 841 24.83 7.7 45.9 58 0.1 32.1
20:15 1012 29.88 842 24.86 8.4 47 56 0.1 32.2
20:20 1012 29.88 841 24.83 8.8 47.8 56 0.6 33
20:25 1012 29.88 841 24.83 8.8 47.8 55 0.2 32.3
20:30 1012 29.88 841 24.83 8.8 47.9 59 1.3 34.3
20:35 1012 29.88 841 24.83 7.3 45.1 63 0.8 33.4
20:40 1012 29.88 841 24.83 7 44.5 62 0.3 32.5
20:45 1012 29.88 841 24.83 7.4 45.3 59 0 32
20:50 1012 29.88 841 24.83 8.1 46.7 57 0.2 32.4
20:55 1012 29.88 841 24.83 8.5 47.3 57 0.5 32.9
21:00 1012 29.88 841 24.83 8.2 46.7 62 1.4 34.5
21:05 1012 29.88 841 24.83 7.3 45.2 63 0.8 33.5
21:10 1012 29.88 841 24.83 7.3 45.1 62 0.5 33
21:15 1012 29.88 841 24.83 7.4 45.4 64 1.1 33.9
21:20 1012 29.88 841 24.83 7 44.5 67 1.2 34.2
21:25 1012 29.88 841 24.83 6.4 43.6 68 0.9 33.6
21:30 1012 29.88 841 24.83 6.3 43.4 67 0.7 33.3
21:35 1012 29.88 841 24.83 6.3 43.4 67 0.7 33.2
21:40 1012 29.88 841 24.83 6.6 43.9 64 0.4 32.7
21:45 1011 29.85 841 24.83 7.2 44.9 59 -0.3 31.4
21:50 1012 29.88 841 24.83 7.8 46 59 0.4 32.6
21:55 1012 29.88 841 24.83 7.8 46.1 61 0.9 33.5
22:00 1012 29.88 841 24.83 7.6 45.7 61 0.5 33
22:05 1012 29.88 841 24.83 7.6 45.7 63 1 33.8
22:10 1012 29.88 841 24.83 7.6 45.6 61 0.5 32.9
22:15 1012 29.88 841 24.83 7.9 46.2 60 0.5 33
22:20 1012 29.88 841 24.83 8.3 46.9 56 0.1 32.2
22:25 1012 29.88 841 24.83 9.3 48.7 53 0.3 32.5
22:30 1012 29.88 841 24.83 9.6 49.3 53 0.5 32.9
22:35 1012 29.88 841 24.83 9.6 49.3 54 0.8 33.4
22:40 1012 29.88 841 24.83 9.5 49 55 0.9 33.7
22:45 1012 29.88 841 24.83 9.3 48.7 56 1 33.9
22:50 1012 29.88 841 24.83 9.4 49 55 0.8 33.4
22:55 1011 29.85 841 24.83 9.7 49.5 54 0.8 33.4
23:00 1012 29.88 841 24.83 9.9 49.8 53 0.9 33.6
23:05 1012 29.88 841 24.83 10 49.9 54 1.3 34.3
23:10 1012 29.88 841 24.83 9.9 49.8 54 1.2 34.1
23:15 1012 29.88 841 24.83 9.9 49.8 54 1 33.9
23:20 1012 29.88 841 24.83 9.9 49.8 55 1.3 34.3
23:25 1012 29.88 841 24.83 9.8 49.6 54 1 33.8
23:30 1012 29.88 841 24.83 9.9 49.8 53 0.9 33.5
23:35 1012 29.88 841 24.83 10 50 52 0.6 33.1
23:40 1012 29.88 841 24.83 10.4 50.7 50 0.4 32.8
23:45 1012 29.88 841 24.83 10.5 50.9 50 0.6 33
23:50 1012 29.88 841 24.83 10.7 51.2 49 0.4 32.7
23:55 1012 29.88 841 24.83 10.6 51.2 49 0.5 32.9
24:00 1012 29.88 841 24.83 10.6 51.1 50 0.6 33